sensor_id;sensor_type;location;lat;lon;timestamp;temperature;humidity
20750;DHT22;10535;50.664;4.564;2024-01-11T00:02:21;-4.00;99.90
20750;DHT22;10535;50.664;4.564;2024-01-11T00:05:30;-3.90;99.90
20750;DHT22;10535;50.664;4.564;2024-01-11T00:07:57;-3.70;99.90
20750;DHT22;10535;50.664;4.564;2024-01-11T00:10:47;-3.80;99.90
20750;DHT22;10535;50.664;4.564;2024-01-11T00:13:29;-4.00;99.90
20750;DHT22;10535;50.664;4.564;2024-01-11T00:16:02;-4.20;99.90
20750;DHT22;10535;50.664;4.564;2024-01-11T00:18:32;-4.30;99.90
20750;DHT22;10535;50.664;4.564;2024-01-11T00:21:15;-4.20;99.90
20750;DHT22;10535;50.664;4.564;2024-01-11T00:23:41;-4.20;99.90
20750;DHT22;10535;50.664;4.564;2024-01-11T00:26:23;-4.00;99.90
20750;DHT22;10535;50.664;4.564;2024-01-11T00:28:48;-4.20;99.90
20750;DHT22;10535;50.664;4.564;2024-01-11T00:31:44;-4.00;99.90
20750;DHT22;10535;50.664;4.564;2024-01-11T00:34:30;-4.30;99.90
20750;DHT22;10535;50.664;4.564;2024-01-11T00:37:06;-4.00;99.90
20750;DHT22;10535;50.664;4.564;2024-01-11T00:39:47;-4.00;99.90
20750;DHT22;10535;50.664;4.564;2024-01-11T00:42:40;-4.10;99.90
20750;DHT22;10535;50.664;4.564;2024-01-11T00:45:14;-4.00;99.90
20750;DHT22;10535;50.664;4.564;2024-01-11T00:47:46;-4.00;99.90
20750;DHT22;10535;50.664;4.564;2024-01-11T00:50:24;-4.00;99.90
20750;DHT22;10535;50.664;4.564;2024-01-11T00:52:58;-4.10;99.90
20750;DHT22;10535;50.664;4.564;2024-01-11T00:55:27;-4.00;99.90
20750;DHT22;10535;50.664;4.564;2024-01-11T00:58:17;-4.00;99.90
20750;DHT22;10535;50.664;4.564;2024-01-11T01:00:48;-4.00;99.90
20750;DHT22;10535;50.664;4.564;2024-01-11T01:03:24;-4.10;99.90
20750;DHT22;10535;50.664;4.564;2024-01-11T01:06:12;-4.10;99.90
20750;DHT22;10535;50.664;4.564;2024-01-11T01:09:12;-4.10;99.90
20750;DHT22;10535;50.664;4.564;2024-01-11T01:11:51;-4.10;99.90
20750;DHT22;10535;50.664;4.564;2024-01-11T01:14:18;-3.80;99.90
20750;DHT22;10535;50.664;4.564;2024-01-11T01:16:48;-3.90;99.90
20750;DHT22;10535;50.664;4.564;2024-01-11T01:19:38;-3.90;99.90
20750;DHT22;10535;50.664;4.564;2024-01-11T01:22:08;-3.60;99.90
20750;DHT22;10535;50.664;4.564;2024-01-11T01:24:57;-4.10;99.90
20750;DHT22;10535;50.664;4.564;2024-01-11T01:27:29;-4.20;99.90
20750;DHT22;10535;50.664;4.564;2024-01-11T01:29:57;-4.20;99.90
20750;DHT22;10535;50.664;4.564;2024-01-11T01:32:29;-4.30;99.90
20750;DHT22;10535;50.664;4.564;2024-01-11T01:35:12;-4.40;99.90
20750;DHT22;10535;50.664;4.564;2024-01-11T01:37:37;-4.50;99.90
20750;DHT22;10535;50.664;4.564;2024-01-11T01:40:06;-4.50;99.90
20750;DHT22;10535;50.664;4.564;2024-01-11T01:43:29;-4.30;99.90
20750;DHT22;10535;50.664;4.564;2024-01-11T01:46:30;-4.20;99.90
20750;DHT22;10535;50.664;4.564;2024-01-11T01:49:14;-4.40;99.90
20750;DHT22;10535;50.664;4.564;2024-01-11T01:52:16;-4.30;99.90
20750;DHT22;10535;50.664;4.564;2024-01-11T01:55:02;-4.30;99.90
20750;DHT22;10535;50.664;4.564;2024-01-11T01:57:32;-4.20;99.90
20750;DHT22;10535;50.664;4.564;2024-01-11T02:00:26;-4.30;99.90
20750;DHT22;10535;50.664;4.564;2024-01-11T02:03:04;-4.00;99.90
20750;DHT22;10535;50.664;4.564;2024-01-11T02:05:33;-4.30;99.90
20750;DHT22;10535;50.664;4.564;2024-01-11T02:08:21;-4.30;99.90
20750;DHT22;10535;50.664;4.564;2024-01-11T02:10:49;-4.30;99.90
20750;DHT22;10535;50.664;4.564;2024-01-11T02:13:26;-3.90;99.90
20750;DHT22;10535;50.664;4.564;2024-01-11T02:15:52;-4.30;99.90
20750;DHT22;10535;50.664;4.564;2024-01-11T02:18:26;-4.30;99.90
20750;DHT22;10535;50.664;4.564;2024-01-11T02:20:57;-4.20;99.90
20750;DHT22;10535;50.664;4.564;2024-01-11T02:23:31;-4.20;99.90
20750;DHT22;10535;50.664;4.564;2024-01-11T02:26:17;-4.20;99.90
20750;DHT22;10535;50.664;4.564;2024-01-11T02:29:25;-4.10;99.90
20750;DHT22;10535;50.664;4.564;2024-01-11T02:32:18;-4.20;99.90
20750;DHT22;10535;50.664;4.564;2024-01-11T02:34:55;-4.30;99.90
20750;DHT22;10535;50.664;4.564;2024-01-11T02:37:29;-4.30;99.90
20750;DHT22;10535;50.664;4.564;2024-01-11T02:40:26;-4.50;99.90
20750;DHT22;10535;50.664;4.564;2024-01-11T02:42:52;-4.10;99.90
20750;DHT22;10535;50.664;4.564;2024-01-11T02:45:43;-4.00;99.90
20750;DHT22;10535;50.664;4.564;2024-01-11T02:48:33;-4.40;99.90
20750;DHT22;10535;50.664;4.564;2024-01-11T02:51:17;-4.30;99.90
20750;DHT22;10535;50.664;4.564;2024-01-11T02:53:47;-4.50;99.90
20750;DHT22;10535;50.664;4.564;2024-01-11T02:56:37;-4.30;99.90
20750;DHT22;10535;50.664;4.564;2024-01-11T02:59:24;-4.40;99.90
20750;DHT22;10535;50.664;4.564;2024-01-11T03:01:58;-4.40;99.90
20750;DHT22;10535;50.664;4.564;2024-01-11T03:05:10;-4.40;99.90
20750;DHT22;10535;50.664;4.564;2024-01-11T03:07:58;-4.40;99.90
20750;DHT22;10535;50.664;4.564;2024-01-11T03:10:25;-4.20;99.90
20750;DHT22;10535;50.664;4.564;2024-01-11T03:13:17;-4.40;99.90
20750;DHT22;10535;50.664;4.564;2024-01-11T03:16:08;-4.40;99.90
20750;DHT22;10535;50.664;4.564;2024-01-11T03:18:50;-4.40;99.90
20750;DHT22;10535;50.664;4.564;2024-01-11T03:21:44;-4.30;99.90
20750;DHT22;10535;50.664;4.564;2024-01-11T03:24:52;-4.40;99.90
20750;DHT22;10535;50.664;4.564;2024-01-11T03:27:24;-4.30;99.90
20750;DHT22;10535;50.664;4.564;2024-01-11T03:29:53;-4.10;99.90
20750;DHT22;10535;50.664;4.564;2024-01-11T03:32:44;-4.20;99.90
20750;DHT22;10535;50.664;4.564;2024-01-11T03:35:43;-4.30;99.90
20750;DHT22;10535;50.664;4.564;2024-01-11T03:38:38;-4.40;99.90
20750;DHT22;10535;50.664;4.564;2024-01-11T03:41:16;-4.60;99.90
20750;DHT22;10535;50.664;4.564;2024-01-11T03:44:11;-4.50;99.90
20750;DHT22;10535;50.664;4.564;2024-01-11T03:47:03;-4.40;99.90
20750;DHT22;10535;50.664;4.564;2024-01-11T03:49:56;-4.40;99.90
20750;DHT22;10535;50.664;4.564;2024-01-11T03:52:49;-4.10;99.90
20750;DHT22;10535;50.664;4.564;2024-01-11T03:56:13;-4.50;99.90
20750;DHT22;10535;50.664;4.564;2024-01-11T03:58:55;-4.60;99.90
20750;DHT22;10535;50.664;4.564;2024-01-11T04:01:27;-4.90;99.90
20750;DHT22;10535;50.664;4.564;2024-01-11T04:04:13;-4.70;99.90
20750;DHT22;10535;50.664;4.564;2024-01-11T04:07:09;-4.60;99.90
20750;DHT22;10535;50.664;4.564;2024-01-11T04:09:48;-4.70;99.90
20750;DHT22;10535;50.664;4.564;2024-01-11T04:12:44;-4.60;99.90
20750;DHT22;10535;50.664;4.564;2024-01-11T04:16:05;-4.60;99.90
20750;DHT22;10535;50.664;4.564;2024-01-11T04:19:18;-4.80;99.90
20750;DHT22;10535;50.664;4.564;2024-01-11T04:21:59;-4.80;99.90
20750;DHT22;10535;50.664;4.564;2024-01-11T04:24:44;-4.60;99.90
20750;DHT22;10535;50.664;4.564;2024-01-11T04:27:31;-4.70;99.90
20750;DHT22;10535;50.664;4.564;2024-01-11T04:31:07;-4.80;99.90
20750;DHT22;10535;50.664;4.564;2024-01-11T04:34:29;-4.80;99.90
20750;DHT22;10535;50.664;4.564;2024-01-11T04:37:28;-4.80;99.90
20750;DHT22;10535;50.664;4.564;2024-01-11T04:40:20;-4.80;99.90
20750;DHT22;10535;50.664;4.564;2024-01-11T04:43:17;-5.00;99.90
20750;DHT22;10535;50.664;4.564;2024-01-11T04:46:17;-4.70;99.90
20750;DHT22;10535;50.664;4.564;2024-01-11T04:49:15;-5.00;99.90
20750;DHT22;10535;50.664;4.564;2024-01-11T04:52:06;-4.70;99.90
20750;DHT22;10535;50.664;4.564;2024-01-11T04:54:58;-4.70;99.90
20750;DHT22;10535;50.664;4.564;2024-01-11T04:58:11;-5.10;99.90
20750;DHT22;10535;50.664;4.564;2024-01-11T05:00:42;-5.00;99.90
20750;DHT22;10535;50.664;4.564;2024-01-11T05:03:36;-5.10;99.90
20750;DHT22;10535;50.664;4.564;2024-01-11T05:06:06;-5.00;99.90
20750;DHT22;10535;50.664;4.564;2024-01-11T05:08:55;-5.00;99.90
20750;DHT22;10535;50.664;4.564;2024-01-11T05:11:24;-4.60;99.90
20750;DHT22;10535;50.664;4.564;2024-01-11T05:14:15;-5.00;99.90
20750;DHT22;10535;50.664;4.564;2024-01-11T05:16:59;-5.10;99.90
20750;DHT22;10535;50.664;4.564;2024-01-11T05:22:26;-5.20;99.90
20750;DHT22;10535;50.664;4.564;2024-01-11T05:25:44;-5.30;99.90
20750;DHT22;10535;50.664;4.564;2024-01-11T05:28:24;-5.40;99.90
20750;DHT22;10535;50.664;4.564;2024-01-11T05:31:23;-5.30;99.90
20750;DHT22;10535;50.664;4.564;2024-01-11T05:34:23;-5.10;99.90
20750;DHT22;10535;50.664;4.564;2024-01-11T05:36:49;-5.30;99.90
20750;DHT22;10535;50.664;4.564;2024-01-11T05:39:16;-5.30;99.90
20750;DHT22;10535;50.664;4.564;2024-01-11T05:41:45;-5.10;99.90
20750;DHT22;10535;50.664;4.564;2024-01-11T05:44:16;-5.30;99.90
20750;DHT22;10535;50.664;4.564;2024-01-11T05:46:47;-5.40;99.90
20750;DHT22;10535;50.664;4.564;2024-01-11T05:49:26;-5.50;99.90
20750;DHT22;10535;50.664;4.564;2024-01-11T05:51:58;-5.50;99.90
20750;DHT22;10535;50.664;4.564;2024-01-11T05:54:40;-5.60;99.90
20750;DHT22;10535;50.664;4.564;2024-01-11T05:57:07;-5.60;99.90
20750;DHT22;10535;50.664;4.564;2024-01-11T05:59:46;-5.40;99.90
20750;DHT22;10535;50.664;4.564;2024-01-11T06:02:13;-5.70;99.90
20750;DHT22;10535;50.664;4.564;2024-01-11T06:04:43;-5.70;99.90
20750;DHT22;10535;50.664;4.564;2024-01-11T06:07:15;-5.50;99.90
20750;DHT22;10535;50.664;4.564;2024-01-11T06:09:42;-5.60;99.90
20750;DHT22;10535;50.664;4.564;2024-01-11T06:12:12;-5.70;99.90
20750;DHT22;10535;50.664;4.564;2024-01-11T06:14:56;-5.60;99.90
20750;DHT22;10535;50.664;4.564;2024-01-11T06:17:25;-5.40;99.90
20750;DHT22;10535;50.664;4.564;2024-01-11T06:20:24;-5.40;99.90
20750;DHT22;10535;50.664;4.564;2024-01-11T06:23:35;-5.40;99.90
20750;DHT22;10535;50.664;4.564;2024-01-11T06:26:47;-5.30;99.90
20750;DHT22;10535;50.664;4.564;2024-01-11T06:29:37;-5.40;99.90
20750;DHT22;10535;50.664;4.564;2024-01-11T06:32:28;-5.50;99.90
20750;DHT22;10535;50.664;4.564;2024-01-11T06:35:38;-5.60;99.90
20750;DHT22;10535;50.664;4.564;2024-01-11T06:38:12;-5.60;99.90
20750;DHT22;10535;50.664;4.564;2024-01-11T06:41:00;-5.50;99.90
20750;DHT22;10535;50.664;4.564;2024-01-11T06:43:54;-5.20;99.90
20750;DHT22;10535;50.664;4.564;2024-01-11T06:46:50;-5.20;99.90
20750;DHT22;10535;50.664;4.564;2024-01-11T06:49:49;-5.30;99.90
20750;DHT22;10535;50.664;4.564;2024-01-11T06:52:44;-5.30;99.90
20750;DHT22;10535;50.664;4.564;2024-01-11T06:55:10;-5.40;99.90
20750;DHT22;10535;50.664;4.564;2024-01-11T06:57:41;-5.30;99.90
20750;DHT22;10535;50.664;4.564;2024-01-11T07:00:29;-5.60;99.90
20750;DHT22;10535;50.664;4.564;2024-01-11T07:03:15;-5.60;99.90
20750;DHT22;10535;50.664;4.564;2024-01-11T07:05:42;-5.60;99.90
20750;DHT22;10535;50.664;4.564;2024-01-11T07:08:10;-5.70;99.90
20750;DHT22;10535;50.664;4.564;2024-01-11T07:11:00;-5.70;99.90
20750;DHT22;10535;50.664;4.564;2024-01-11T07:13:30;-5.70;99.90
20750;DHT22;10535;50.664;4.564;2024-01-11T07:16:08;-5.60;99.90
20750;DHT22;10535;50.664;4.564;2024-01-11T07:18:56;-5.70;99.90
20750;DHT22;10535;50.664;4.564;2024-01-11T07:21:27;-5.40;99.90
20750;DHT22;10535;50.664;4.564;2024-01-11T07:24:06;-5.40;99.90
20750;DHT22;10535;50.664;4.564;2024-01-11T07:27:16;-5.60;99.90
20750;DHT22;10535;50.664;4.564;2024-01-11T07:29:49;-5.60;99.90
20750;DHT22;10535;50.664;4.564;2024-01-11T07:32:16;-5.60;99.90
20750;DHT22;10535;50.664;4.564;2024-01-11T07:34:53;-5.50;99.90
20750;DHT22;10535;50.664;4.564;2024-01-11T07:37:27;-5.40;99.90
20750;DHT22;10535;50.664;4.564;2024-01-11T07:40:44;-5.60;99.90
20750;DHT22;10535;50.664;4.564;2024-01-11T07:43:11;-5.60;99.90
20750;DHT22;10535;50.664;4.564;2024-01-11T07:45:38;-5.70;99.90
20750;DHT22;10535;50.664;4.564;2024-01-11T07:48:39;-5.60;99.90
20750;DHT22;10535;50.664;4.564;2024-01-11T07:51:20;-5.70;99.90
20750;DHT22;10535;50.664;4.564;2024-01-11T07:53:57;-5.50;99.90
20750;DHT22;10535;50.664;4.564;2024-01-11T07:57:17;-5.50;99.90
20750;DHT22;10535;50.664;4.564;2024-01-11T07:59:50;-5.60;99.90
20750;DHT22;10535;50.664;4.564;2024-01-11T08:02:20;-5.60;99.90
20750;DHT22;10535;50.664;4.564;2024-01-11T08:04:59;-5.50;99.90
20750;DHT22;10535;50.664;4.564;2024-01-11T08:07:28;-5.40;99.90
20750;DHT22;10535;50.664;4.564;2024-01-11T08:10:04;-5.50;99.90
20750;DHT22;10535;50.664;4.564;2024-01-11T08:12:46;-5.40;99.90
20750;DHT22;10535;50.664;4.564;2024-01-11T08:15:12;-5.40;99.90
20750;DHT22;10535;50.664;4.564;2024-01-11T08:17:47;-5.30;99.90
20750;DHT22;10535;50.664;4.564;2024-01-11T08:20:16;-5.20;99.90
20750;DHT22;10535;50.664;4.564;2024-01-11T08:22:50;-5.20;99.90
20750;DHT22;10535;50.664;4.564;2024-01-11T08:25:23;-5.20;99.90
20750;DHT22;10535;50.664;4.564;2024-01-11T08:27:51;-5.20;99.90
20750;DHT22;10535;50.664;4.564;2024-01-11T08:30:27;-5.00;99.90
20750;DHT22;10535;50.664;4.564;2024-01-11T08:32:58;-5.00;99.90
20750;DHT22;10535;50.664;4.564;2024-01-11T08:35:30;-5.00;99.90
20750;DHT22;10535;50.664;4.564;2024-01-11T08:37:59;-4.80;99.90
20750;DHT22;10535;50.664;4.564;2024-01-11T08:40:28;-4.60;99.90
20750;DHT22;10535;50.664;4.564;2024-01-11T08:42:57;-4.50;99.90
20750;DHT22;10535;50.664;4.564;2024-01-11T08:45:23;-4.50;99.90
20750;DHT22;10535;50.664;4.564;2024-01-11T08:47:51;-4.60;99.90
20750;DHT22;10535;50.664;4.564;2024-01-11T08:50:24;-4.60;99.90
20750;DHT22;10535;50.664;4.564;2024-01-11T08:53:27;-4.70;99.90
20750;DHT22;10535;50.664;4.564;2024-01-11T08:56:00;-4.80;99.90
20750;DHT22;10535;50.664;4.564;2024-01-11T08:58:27;-4.50;99.90
20750;DHT22;10535;50.664;4.564;2024-01-11T09:01:17;-4.50;99.90
20750;DHT22;10535;50.664;4.564;2024-01-11T09:03:56;-4.50;99.90
20750;DHT22;10535;50.664;4.564;2024-01-11T09:06:26;-4.40;99.90
20750;DHT22;10535;50.664;4.564;2024-01-11T09:08:52;-4.70;99.90
20750;DHT22;10535;50.664;4.564;2024-01-11T09:11:18;-4.50;99.90
20750;DHT22;10535;50.664;4.564;2024-01-11T09:13:44;-4.70;99.90
20750;DHT22;10535;50.664;4.564;2024-01-11T09:16:17;-4.60;99.90
20750;DHT22;10535;50.664;4.564;2024-01-11T09:18:57;-4.50;99.90
20750;DHT22;10535;50.664;4.564;2024-01-11T09:21:27;-4.60;99.90
20750;DHT22;10535;50.664;4.564;2024-01-11T09:23:53;-4.30;99.90
20750;DHT22;10535;50.664;4.564;2024-01-11T09:26:38;-4.30;99.90
20750;DHT22;10535;50.664;4.564;2024-01-11T09:32:29;-4.10;99.90
20750;DHT22;10535;50.664;4.564;2024-01-11T09:34:57;-4.20;99.90
20750;DHT22;10535;50.664;4.564;2024-01-11T09:37:43;-4.30;99.90
20750;DHT22;10535;50.664;4.564;2024-01-11T09:40:38;-3.90;99.90
20750;DHT22;10535;50.664;4.564;2024-01-11T09:43:11;-4.00;99.90
20750;DHT22;10535;50.664;4.564;2024-01-11T09:46:18;-4.10;99.90
20750;DHT22;10535;50.664;4.564;2024-01-11T09:49:10;-4.00;99.90
20750;DHT22;10535;50.664;4.564;2024-01-11T09:51:43;-3.80;99.90
20750;DHT22;10535;50.664;4.564;2024-01-11T09:54:54;-3.60;99.90
20750;DHT22;10535;50.664;4.564;2024-01-11T09:57:35;-3.80;99.90
20750;DHT22;10535;50.664;4.564;2024-01-11T10:00:29;-3.90;99.90
20750;DHT22;10535;50.664;4.564;2024-01-11T10:03:36;-3.60;99.90
20750;DHT22;10535;50.664;4.564;2024-01-11T10:06:42;-3.70;99.90
20750;DHT22;10535;50.664;4.564;2024-01-11T10:09:24;-3.50;99.90
20750;DHT22;10535;50.664;4.564;2024-01-11T10:11:56;-3.20;99.90
20750;DHT22;10535;50.664;4.564;2024-01-11T10:15:07;-3.40;99.90
20750;DHT22;10535;50.664;4.564;2024-01-11T10:17:58;-3.40;99.90
20750;DHT22;10535;50.664;4.564;2024-01-11T10:20:26;-3.30;99.90
20750;DHT22;10535;50.664;4.564;2024-01-11T10:23:18;-3.10;99.90
20750;DHT22;10535;50.664;4.564;2024-01-11T10:26:10;-3.20;99.90
20750;DHT22;10535;50.664;4.564;2024-01-11T10:29:44;-3.10;99.90
20750;DHT22;10535;50.664;4.564;2024-01-11T10:33:13;-3.20;99.90
20750;DHT22;10535;50.664;4.564;2024-01-11T10:36:00;-3.00;99.90
20750;DHT22;10535;50.664;4.564;2024-01-11T10:39:08;-2.90;99.90
20750;DHT22;10535;50.664;4.564;2024-01-11T10:42:36;-2.90;99.90
20750;DHT22;10535;50.664;4.564;2024-01-11T10:45:19;-2.70;99.90
20750;DHT22;10535;50.664;4.564;2024-01-11T10:48:39;-2.60;99.90
20750;DHT22;10535;50.664;4.564;2024-01-11T10:51:33;-2.60;99.90
20750;DHT22;10535;50.664;4.564;2024-01-11T10:54:03;-2.50;99.90
20750;DHT22;10535;50.664;4.564;2024-01-11T10:56:45;-2.40;99.90
20750;DHT22;10535;50.664;4.564;2024-01-11T10:59:38;-2.40;99.90
20750;DHT22;10535;50.664;4.564;2024-01-11T11:02:10;-2.50;99.90
20750;DHT22;10535;50.664;4.564;2024-01-11T11:04:54;-2.40;99.90
20750;DHT22;10535;50.664;4.564;2024-01-11T11:07:35;-2.20;99.90
20750;DHT22;10535;50.664;4.564;2024-01-11T11:10:23;-2.20;99.90
20750;DHT22;10535;50.664;4.564;2024-01-11T11:13:11;-2.10;99.90
20750;DHT22;10535;50.664;4.564;2024-01-11T11:16:23;-2.00;99.90
20750;DHT22;10535;50.664;4.564;2024-01-11T11:19:39;-2.10;99.90
20750;DHT22;10535;50.664;4.564;2024-01-11T11:23:18;-2.10;99.90
20750;DHT22;10535;50.664;4.564;2024-01-11T11:26:46;-2.00;99.90
20750;DHT22;10535;50.664;4.564;2024-01-11T11:29:24;-1.70;99.90
20750;DHT22;10535;50.664;4.564;2024-01-11T11:31:50;-1.50;99.90
20750;DHT22;10535;50.664;4.564;2024-01-11T11:34:43;-1.40;99.90
20750;DHT22;10535;50.664;4.564;2024-01-11T11:37:23;-1.30;99.90
20750;DHT22;10535;50.664;4.564;2024-01-11T11:39:58;-1.20;99.90
20750;DHT22;10535;50.664;4.564;2024-01-11T11:42:36;-1.40;99.90
20750;DHT22;10535;50.664;4.564;2024-01-11T11:45:35;-1.20;99.90
20750;DHT22;10535;50.664;4.564;2024-01-11T11:51:39;-1.10;99.90
20750;DHT22;10535;50.664;4.564;2024-01-11T11:54:36;-0.80;99.90
20750;DHT22;10535;50.664;4.564;2024-01-11T11:57:22;-0.80;99.90
20750;DHT22;10535;50.664;4.564;2024-01-11T11:59:57;-0.90;99.90
20750;DHT22;10535;50.664;4.564;2024-01-11T12:06:39;-0.70;99.90
20750;DHT22;10535;50.664;4.564;2024-01-11T12:10:00;-0.80;99.90
20750;DHT22;10535;50.664;4.564;2024-01-11T12:13:16;-0.60;99.90
20750;DHT22;10535;50.664;4.564;2024-01-11T12:15:58;-0.30;99.90
20750;DHT22;10535;50.664;4.564;2024-01-11T12:18:35;-0.40;99.90
20750;DHT22;10535;50.664;4.564;2024-01-11T12:21:16;-0.40;99.90
20750;DHT22;10535;50.664;4.564;2024-01-11T12:24:31;-0.20;99.90
20750;DHT22;10535;50.664;4.564;2024-01-11T12:27:26;-0.10;99.90
20750;DHT22;10535;50.664;4.564;2024-01-11T12:30:35;-0.10;99.90
20750;DHT22;10535;50.664;4.564;2024-01-11T12:33:55;0.20;99.90
20750;DHT22;10535;50.664;4.564;2024-01-11T12:37:17;0.00;99.90
20750;DHT22;10535;50.664;4.564;2024-01-11T12:40:43;0.20;99.90
20750;DHT22;10535;50.664;4.564;2024-01-11T12:43:52;0.30;99.90
20750;DHT22;10535;50.664;4.564;2024-01-11T12:47:00;0.40;99.90
20750;DHT22;10535;50.664;4.564;2024-01-11T12:50:23;0.20;99.90
20750;DHT22;10535;50.664;4.564;2024-01-11T12:53:37;-0.10;99.90
20750;DHT22;10535;50.664;4.564;2024-01-11T12:56:25;0.20;99.90
20750;DHT22;10535;50.664;4.564;2024-01-11T12:59:33;0.40;99.90
20750;DHT22;10535;50.664;4.564;2024-01-11T13:02:23;0.40;99.90
20750;DHT22;10535;50.664;4.564;2024-01-11T13:05:26;0.20;99.90
20750;DHT22;10535;50.664;4.564;2024-01-11T13:08:30;0.20;99.90
20750;DHT22;10535;50.664;4.564;2024-01-11T13:11:37;0.30;99.90
20750;DHT22;10535;50.664;4.564;2024-01-11T13:15:08;0.20;99.90
20750;DHT22;10535;50.664;4.564;2024-01-11T13:17:55;0.20;99.90
20750;DHT22;10535;50.664;4.564;2024-01-11T13:21:04;0.30;99.90
20750;DHT22;10535;50.664;4.564;2024-01-11T13:27:04;0.40;99.90
20750;DHT22;10535;50.664;4.564;2024-01-11T13:30:15;0.50;99.90
20750;DHT22;10535;50.664;4.564;2024-01-11T13:33:15;0.10;99.90
20750;DHT22;10535;50.664;4.564;2024-01-11T13:38:35;0.70;99.90
20750;DHT22;10535;50.664;4.564;2024-01-11T13:41:02;0.90;99.90
20750;DHT22;10535;50.664;4.564;2024-01-11T13:44:17;0.80;99.90
20750;DHT22;10535;50.664;4.564;2024-01-11T13:47:09;0.60;99.90
20750;DHT22;10535;50.664;4.564;2024-01-11T13:49:35;0.70;99.90
20750;DHT22;10535;50.664;4.564;2024-01-11T13:52:36;0.70;99.90
20750;DHT22;10535;50.664;4.564;2024-01-11T13:55:37;0.70;99.90
20750;DHT22;10535;50.664;4.564;2024-01-11T13:58:30;0.70;99.90
20750;DHT22;10535;50.664;4.564;2024-01-11T14:01:23;0.70;99.90
20750;DHT22;10535;50.664;4.564;2024-01-11T14:04:18;0.50;99.90
20750;DHT22;10535;50.664;4.564;2024-01-11T14:07:11;0.60;99.90
20750;DHT22;10535;50.664;4.564;2024-01-11T14:13:04;0.50;99.90
20750;DHT22;10535;50.664;4.564;2024-01-11T14:15:55;0.50;99.90
20750;DHT22;10535;50.664;4.564;2024-01-11T14:18:43;0.50;99.90
20750;DHT22;10535;50.664;4.564;2024-01-11T14:21:34;0.50;99.90
20750;DHT22;10535;50.664;4.564;2024-01-11T14:24:02;0.60;99.90
20750;DHT22;10535;50.664;4.564;2024-01-11T14:26:47;0.60;99.90
20750;DHT22;10535;50.664;4.564;2024-01-11T14:29:43;0.50;99.90
20750;DHT22;10535;50.664;4.564;2024-01-11T14:32:09;0.50;99.90
20750;DHT22;10535;50.664;4.564;2024-01-11T14:35:20;0.50;99.90
20750;DHT22;10535;50.664;4.564;2024-01-11T14:38:24;0.60;99.90
20750;DHT22;10535;50.664;4.564;2024-01-11T14:40:52;0.60;99.90
20750;DHT22;10535;50.664;4.564;2024-01-11T14:43:35;0.50;99.90
20750;DHT22;10535;50.664;4.564;2024-01-11T14:46:01;0.40;99.90
20750;DHT22;10535;50.664;4.564;2024-01-11T14:48:27;0.50;99.90
20750;DHT22;10535;50.664;4.564;2024-01-11T14:51:28;0.60;99.90
20750;DHT22;10535;50.664;4.564;2024-01-11T14:54:23;0.50;99.90
20750;DHT22;10535;50.664;4.564;2024-01-11T14:57:24;0.50;99.90
20750;DHT22;10535;50.664;4.564;2024-01-11T15:00:25;0.40;99.90
20750;DHT22;10535;50.664;4.564;2024-01-11T15:02:52;0.50;99.90
20750;DHT22;10535;50.664;4.564;2024-01-11T15:05:40;0.30;99.90
20750;DHT22;10535;50.664;4.564;2024-01-11T15:08:30;0.40;99.90
20750;DHT22;10535;50.664;4.564;2024-01-11T15:10:56;0.50;99.90
20750;DHT22;10535;50.664;4.564;2024-01-11T15:13:23;0.50;99.90
20750;DHT22;10535;50.664;4.564;2024-01-11T15:16:15;0.40;99.90
20750;DHT22;10535;50.664;4.564;2024-01-11T15:19:08;0.30;99.90
20750;DHT22;10535;50.664;4.564;2024-01-11T15:21:43;0.50;99.90
20750;DHT22;10535;50.664;4.564;2024-01-11T15:24:38;0.30;99.90
20750;DHT22;10535;50.664;4.564;2024-01-11T15:27:38;0.40;99.90
20750;DHT22;10535;50.664;4.564;2024-01-11T15:30:22;0.20;99.90
20750;DHT22;10535;50.664;4.564;2024-01-11T15:33:29;0.20;99.90
20750;DHT22;10535;50.664;4.564;2024-01-11T15:36:39;0.30;99.90
20750;DHT22;10535;50.664;4.564;2024-01-11T15:39:08;0.30;99.90
20750;DHT22;10535;50.664;4.564;2024-01-11T15:41:37;0.30;99.90
20750;DHT22;10535;50.664;4.564;2024-01-11T15:44:02;0.30;99.90
20750;DHT22;10535;50.664;4.564;2024-01-11T15:46:36;0.30;99.90
20750;DHT22;10535;50.664;4.564;2024-01-11T15:49:02;0.30;99.90
20750;DHT22;10535;50.664;4.564;2024-01-11T15:51:57;0.40;99.90
20750;DHT22;10535;50.664;4.564;2024-01-11T15:54:36;0.30;99.90
20750;DHT22;10535;50.664;4.564;2024-01-11T15:57:14;0.10;99.90
20750;DHT22;10535;50.664;4.564;2024-01-11T15:59:43;0.10;99.90
20750;DHT22;10535;50.664;4.564;2024-01-11T16:02:39;0.00;99.90
20750;DHT22;10535;50.664;4.564;2024-01-11T16:05:29;0.00;99.90
20750;DHT22;10535;50.664;4.564;2024-01-11T16:08:06;0.00;99.90
20750;DHT22;10535;50.664;4.564;2024-01-11T16:10:55;0.00;99.90
20750;DHT22;10535;50.664;4.564;2024-01-11T16:13:43;-0.10;99.90
20750;DHT22;10535;50.664;4.564;2024-01-11T16:16:19;-0.10;99.90
20750;DHT22;10535;50.664;4.564;2024-01-11T16:18:45;-0.20;99.90
20750;DHT22;10535;50.664;4.564;2024-01-11T16:21:12;-0.10;99.90
20750;DHT22;10535;50.664;4.564;2024-01-11T16:23:59;-0.20;99.90
20750;DHT22;10535;50.664;4.564;2024-01-11T16:27:26;-0.20;99.90
20750;DHT22;10535;50.664;4.564;2024-01-11T16:30:17;-0.40;99.90
20750;DHT22;10535;50.664;4.564;2024-01-11T16:33:13;-0.40;99.90
20750;DHT22;10535;50.664;4.564;2024-01-11T16:36:08;-0.30;99.90
20750;DHT22;10535;50.664;4.564;2024-01-11T16:38:56;-0.40;99.90
20750;DHT22;10535;50.664;4.564;2024-01-11T16:41:40;-0.50;99.90
20750;DHT22;10535;50.664;4.564;2024-01-11T16:45:05;-0.50;99.90
20750;DHT22;10535;50.664;4.564;2024-01-11T16:48:13;-0.50;99.90
20750;DHT22;10535;50.664;4.564;2024-01-11T16:50:58;-0.60;99.90
20750;DHT22;10535;50.664;4.564;2024-01-11T16:53:41;-0.60;99.90
20750;DHT22;10535;50.664;4.564;2024-01-11T16:56:18;-0.60;99.90
20750;DHT22;10535;50.664;4.564;2024-01-11T16:59:12;-0.70;99.90
20750;DHT22;10535;50.664;4.564;2024-01-11T17:02:07;-0.70;99.90
20750;DHT22;10535;50.664;4.564;2024-01-11T17:04:43;-0.70;99.90
20750;DHT22;10535;50.664;4.564;2024-01-11T17:10:38;-0.80;99.90
20750;DHT22;10535;50.664;4.564;2024-01-11T17:13:37;-0.80;99.90
20750;DHT22;10535;50.664;4.564;2024-01-11T17:16:29;-0.70;99.90
20750;DHT22;10535;50.664;4.564;2024-01-11T17:19:06;-0.80;99.90
20750;DHT22;10535;50.664;4.564;2024-01-11T17:22:04;-0.70;99.90
20750;DHT22;10535;50.664;4.564;2024-01-11T17:25:10;-0.70;99.90
20750;DHT22;10535;50.664;4.564;2024-01-11T17:28:16;-0.60;99.90
20750;DHT22;10535;50.664;4.564;2024-01-11T17:30:55;-0.50;99.90
20750;DHT22;10535;50.664;4.564;2024-01-11T17:33:24;-0.40;99.90
20750;DHT22;10535;50.664;4.564;2024-01-11T17:36:21;-0.30;99.90
20750;DHT22;10535;50.664;4.564;2024-01-11T17:38:47;-0.20;99.90
20750;DHT22;10535;50.664;4.564;2024-01-11T17:41:24;-0.20;99.90
20750;DHT22;10535;50.664;4.564;2024-01-11T17:43:54;-0.10;99.90
20750;DHT22;10535;50.664;4.564;2024-01-11T17:46:43;-0.20;99.90
20750;DHT22;10535;50.664;4.564;2024-01-11T17:49:32;0.00;99.90
20750;DHT22;10535;50.664;4.564;2024-01-11T17:52:59;-0.10;99.90
20750;DHT22;10535;50.664;4.564;2024-01-11T17:55:36;0.00;99.90
20750;DHT22;10535;50.664;4.564;2024-01-11T17:58:06;0.00;99.90
20750;DHT22;10535;50.664;4.564;2024-01-11T18:00:49;0.10;99.90
20750;DHT22;10535;50.664;4.564;2024-01-11T18:03:22;0.20;99.90